Time;durP1;ratioP1;P1;durP2;ratioP2;P2;SDS_P1;SDS_P2;PMS_P1;PMS_P2;Temp;Humidity;BMP_temperature;BMP_pressure;BME280_temperature;BME280_humidity;BME280_pressure;Samples;Min_cycle;Max_cycle;Signal;HPM_P1;HPM_P2
2022/07/15 00:02:24;;;;;;;10.90;4.53;;;;;;;;;;5078616;28;20040;-67
2022/07/15 00:04:50;;;;;;;13.10;4.87;;;;;;;;;;5070339;28;20134;-66
2022/07/15 00:07:15;;;;;;;15.83;5.00;;;;;;;;;;5073855;28;20029;-67
2022/07/15 00:12:25;;;;;;;22.03;5.77;;;;;;;;;;5078338;28;20542;-67
2022/07/15 00:14:50;;;;;;;20.67;5.80;;;;;;;;;;5083704;28;20020;-67
2022/07/15 00:17:15;;;;;;;17.27;6.23;;;;;;;;;;5075343;28;20073;-67
2022/07/15 00:19:40;;;;;;;22.30;6.50;;;;;;;;;;5078991;28;20495;-66
2022/07/15 00:22:06;;;;;;;15.77;5.37;;;;;;;;;;5081213;28;20039;-67
2022/07/15 00:24:31;;;;;;;20.63;6.30;;;;;;;;;;5077806;28;20017;-67
2022/07/15 00:26:57;;;;;;;18.10;6.07;;;;;;;;;;5079325;28;20520;-67
2022/07/15 00:29:22;;;;;;;21.20;6.70;;;;;;;;;;5078279;28;20023;-66
2022/07/15 00:31:48;;;;;;;16.50;5.93;;;;;;;;;;5077307;28;20047;-67
2022/07/15 00:34:13;;;;;;;18.63;6.23;;;;;;;;;;5080946;28;20017;-67
2022/07/15 00:36:39;;;;;;;17.53;6.10;;;;;;;;;;5081721;28;20498;-67
2022/07/15 00:39:04;;;;;;;15.10;6.07;;;;;;;;;;5085831;28;20044;-66
2022/07/15 00:41:39;;;;;;;19.70;6.83;;;;;;;;;;5078855;28;20051;-67
2022/07/15 00:44:05;;;;;;;17.23;7.13;;;;;;;;;;5079410;28;20556;-66
2022/07/15 00:46:31;;;;;;;24.63;7.23;;;;;;;;;;5082375;28;20034;-67
2022/07/15 00:48:59;;;;;;;20.23;7.70;;;;;;;;;;5082251;28;20028;-67
2022/07/15 00:51:25;;;;;;;20.87;7.87;;;;;;;;;;5075900;28;20515;-66
2022/07/15 00:53:51;;;;;;;18.87;8.07;;;;;;;;;;5074040;28;20028;-66
2022/07/15 00:56:17;;;;;;;19.63;7.57;;;;;;;;;;5079742;28;20074;-66
2022/07/15 00:58:43;;;;;;;23.23;7.87;;;;;;;;;;5078021;28;20052;-67
2022/07/15 01:01:10;;;;;;;23.10;9.17;;;;;;;;;;5079691;28;20078;-66
2022/07/15 01:03:35;;;;;;;20.23;7.23;;;;;;;;;;5080416;28;20025;-66
2022/07/15 01:06:01;;;;;;;21.73;6.97;;;;;;;;;;5078151;28;20384;-67
2022/07/15 01:08:26;;;;;;;15.47;7.30;;;;;;;;;;5075754;28;20395;-66
2022/07/15 01:10:52;;;;;;;24.03;7.83;;;;;;;;;;5082958;28;20528;-66
2022/07/15 01:13:19;;;;;;;18.53;6.60;;;;;;;;;;5080662;28;20708;-66
2022/07/15 01:15:44;;;;;;;16.20;5.57;;;;;;;;;;5081228;28;20024;-67
2022/07/15 01:18:09;;;;;;;20.27;5.77;;;;;;;;;;5085066;28;20413;-67
2022/07/15 01:20:39;;;;;;;18.57;5.27;;;;;;;;;;5079284;28;20046;-67
2022/07/15 01:23:04;;;;;;;13.53;5.50;;;;;;;;;;5080142;28;20028;-67
2022/07/15 01:25:29;;;;;;;15.53;5.80;;;;;;;;;;5079779;28;20036;-67
2022/07/15 01:27:55;;;;;;;15.80;5.50;;;;;;;;;;5081407;28;20038;-67
2022/07/15 01:30:20;;;;;;;15.47;5.13;;;;;;;;;;5080579;28;20491;-67
2022/07/15 01:32:45;;;;;;;11.37;4.20;;;;;;;;;;5078036;28;20027;-67
2022/07/15 01:35:10;;;;;;;12.07;4.50;;;;;;;;;;5077625;28;20033;-67
2022/07/15 01:37:36;;;;;;;11.77;4.07;;;;;;;;;;5078951;28;20036;-67
2022/07/15 01:40:01;;;;;;;18.53;5.23;;;;;;;;;;5075461;28;20028;-67
2022/07/15 01:42:26;;;;;;;11.30;3.53;;;;;;;;;;5085210;28;20095;-67
2022/07/15 01:44:51;;;;;;;14.40;4.17;;;;;;;;;;5083078;28;20020;-67
2022/07/15 01:47:17;;;;;;;15.03;3.97;;;;;;;;;;5075355;28;20023;-67
2022/07/15 01:49:42;;;;;;;18.57;4.10;;;;;;;;;;5079732;28;20087;-67
2022/07/15 01:52:09;;;;;;;15.53;3.97;;;;;;;;;;5083540;28;20423;-67
2022/07/15 01:54:34;;;;;;;12.73;4.10;;;;;;;;;;5076080;28;20017;-67
2022/07/15 01:57:00;;;;;;;13.57;3.63;;;;;;;;;;5075291;28;20077;-67
2022/07/15 01:59:26;;;;;;;16.10;3.57;;;;;;;;;;5073660;28;20023;-67
2022/07/15 02:01:52;;;;;;;9.80;3.90;;;;;;;;;;5073593;28;20024;-67
2022/07/15 02:04:18;;;;;;;14.37;4.03;;;;;;;;;;5074315;28;20090;-67
2022/07/15 02:06:44;;;;;;;12.97;4.13;;;;;;;;;;5077032;28;20031;-67
2022/07/15 02:09:10;;;;;;;13.37;4.53;;;;;;;;;;5078625;28;20023;-67
2022/07/15 02:11:35;;;;;;;13.00;4.47;;;;;;;;;;5082389;28;20055;-67
2022/07/15 02:14:01;;;;;;;15.63;4.40;;;;;;;;;;5076933;28;20032;-67
2022/07/15 02:16:27;;;;;;;20.60;5.50;;;;;;;;;;5075713;28;20075;-67
2022/07/15 02:18:52;;;;;;;16.20;4.87;;;;;;;;;;5073450;28;20048;-67
2022/07/15 02:21:18;;;;;;;22.77;5.67;;;;;;;;;;5075959;28;20024;-67
2022/07/15 02:23:43;;;;;;;18.43;5.20;;;;;;;;;;5076249;28;20025;-67
2022/07/15 02:26:08;;;;;;;16.73;4.67;;;;;;;;;;5079989;28;20020;-67
2022/07/15 02:28:34;;;;;;;19.30;5.37;;;;;;;;;;5077339;28;20478;-67
2022/07/15 02:30:59;;;;;;;18.20;5.67;;;;;;;;;;5078235;28;20038;-67
2022/07/15 02:33:24;;;;;;;16.50;5.17;;;;;;;;;;5076313;28;20037;-67
2022/07/15 02:35:52;;;;;;;20.10;5.53;;;;;;;;;;5077513;28;20028;-67
2022/07/15 02:38:19;;;;;;;14.73;5.70;;;;;;;;;;5080545;28;20475;-67
2022/07/15 02:40:44;;;;;;;10.33;4.50;;;;;;;;;;5082276;28;20032;-67
2022/07/15 02:43:10;;;;;;;13.93;4.60;;;;;;;;;;5079016;28;20055;-67
2022/07/15 02:45:36;;;;;;;17.00;4.80;;;;;;;;;;5077253;28;20036;-67
2022/07/15 02:48:02;;;;;;;15.43;5.20;;;;;;;;;;5088035;28;20111;-67
2022/07/15 02:50:28;;;;;;;16.43;5.50;;;;;;;;;;5078911;28;20539;-67
2022/07/15 02:52:53;;;;;;;19.27;5.43;;;;;;;;;;5075059;28;20534;-67
2022/07/15 02:55:19;;;;;;;13.60;4.50;;;;;;;;;;5079053;28;20111;-67
2022/07/15 02:57:44;;;;;;;13.00;4.70;;;;;;;;;;5076214;28;20458;-67
2022/07/15 03:00:11;;;;;;;15.17;5.00;;;;;;;;;;5083553;28;20433;-67
2022/07/15 03:02:37;;;;;;;14.70;5.37;;;;;;;;;;5078642;28;20088;-67
2022/07/15 03:05:02;;;;;;;14.03;5.00;;;;;;;;;;5077810;28;20024;-67
2022/07/15 03:07:28;;;;;;;16.57;5.13;;;;;;;;;;5081605;28;20028;-67
2022/07/15 03:09:53;;;;;;;14.13;5.37;;;;;;;;;;5078885;28;20020;-67
2022/07/15 03:12:19;;;;;;;15.30;5.30;;;;;;;;;;5074063;28;20036;-67
2022/07/15 03:14:44;;;;;;;14.70;5.70;;;;;;;;;;5073643;28;20119;-67
2022/07/15 03:17:09;;;;;;;13.87;4.90;;;;;;;;;;5075021;28;20417;-67
2022/07/15 03:19:34;;;;;;;14.83;4.97;;;;;;;;;;5086295;28;20448;-67
2022/07/15 03:22:00;;;;;;;13.93;5.30;;;;;;;;;;5083491;28;20028;-67
2022/07/15 03:24:25;;;;;;;15.10;5.90;;;;;;;;;;5080001;28;20081;-67
2022/07/15 03:26:50;;;;;;;14.10;5.40;;;;;;;;;;5081084;28;20062;-67
2022/07/15 03:29:15;;;;;;;14.83;5.13;;;;;;;;;;5075886;28;20025;-67
2022/07/15 03:31:41;;;;;;;16.80;5.43;;;;;;;;;;5073506;28;20031;-67
2022/07/15 03:34:07;;;;;;;15.83;5.00;;;;;;;;;;5075005;28;20024;-67
2022/07/15 03:36:32;;;;;;;19.07;5.27;;;;;;;;;;5077426;28;20093;-67
2022/07/15 03:38:57;;;;;;;21.17;5.67;;;;;;;;;;5077438;28;20023;-67
2022/07/15 03:41:23;;;;;;;14.67;4.77;;;;;;;;;;5077182;28;20067;-67
2022/07/15 03:43:48;;;;;;;15.77;5.40;;;;;;;;;;5072722;28;20024;-66
2022/07/15 03:46:16;;;;;;;14.60;4.90;;;;;;;;;;5078245;28;20104;-67
2022/07/15 03:48:41;;;;;;;12.60;5.10;;;;;;;;;;5078500;28;20031;-67
2022/07/15 03:51:06;;;;;;;13.60;4.93;;;;;;;;;;5076202;28;20024;-67
2022/07/15 03:53:32;;;;;;;15.73;4.60;;;;;;;;;;5080018;28;20035;-67
2022/07/15 03:55:57;;;;;;;17.30;4.80;;;;;;;;;;5086304;28;20024;-67
2022/07/15 03:58:22;;;;;;;15.53;4.97;;;;;;;;;;5082419;28;20024;-67
2022/07/15 04:00:48;;;;;;;11.77;4.53;;;;;;;;;;5076257;28;20031;-66
2022/07/15 04:03:13;;;;;;;15.47;4.70;;;;;;;;;;5077582;28;20024;-67
2022/07/15 04:05:39;;;;;;;15.30;4.37;;;;;;;;;;5078917;28;20056;-67
2022/07/15 04:08:04;;;;;;;15.37;4.73;;;;;;;;;;5083573;28;20015;-67
2022/07/15 04:10:31;;;;;;;15.80;6.07;;;;;;;;;;5076477;28;20016;-67
2022/07/15 04:12:56;;;;;;;12.97;4.60;;;;;;;;;;5079019;28;20028;-67
2022/07/15 04:15:21;;;;;;;15.53;4.00;;;;;;;;;;5085394;28;20028;-67
2022/07/15 04:17:47;;;;;;;11.90;3.70;;;;;;;;;;5080412;28;20457;-67
2022/07/15 04:20:12;;;;;;;12.30;3.73;;;;;;;;;;5085262;28;20020;-67
2022/07/15 04:22:41;;;;;;;13.13;3.70;;;;;;;;;;5090371;28;20028;-67
2022/07/15 04:25:07;;;;;;;10.40;3.20;;;;;;;;;;5085204;28;20092;-67
2022/07/15 04:27:32;;;;;;;16.63;3.60;;;;;;;;;;5088660;28;20024;-67
2022/07/15 04:29:57;;;;;;;14.73;3.00;;;;;;;;;;5081116;28;20046;-67
2022/07/15 04:32:22;;;;;;;12.23;3.50;;;;;;;;;;5077531;28;20365;-67
2022/07/15 04:34:48;;;;;;;11.63;3.90;;;;;;;;;;5083151;28;20426;-67
2022/07/15 04:37:13;;;;;;;13.13;3.20;;;;;;;;;;5084167;28;20019;-67
2022/07/15 04:39:38;;;;;;;11.30;2.97;;;;;;;;;;5073950;28;20028;-67
2022/07/15 04:42:03;;;;;;;11.98;2.90;;;;;;;;;;5086256;28;20016;-67
2022/07/15 04:44:29;;;;;;;13.33;2.97;;;;;;;;;;5079392;28;20021;-67
2022/07/15 04:46:54;;;;;;;11.83;3.33;;;;;;;;;;5075132;28;20111;-67
2022/07/15 04:52:14;;;;;;;12.00;4.37;;;;;;;;;;5072130;28;20052;-67
2022/07/15 04:54:39;;;;;;;13.30;3.40;;;;;;;;;;5088884;28;20038;-67
2022/07/15 04:57:04;;;;;;;11.57;3.50;;;;;;;;;;5094484;28;20040;-67
2022/07/15 04:59:30;;;;;;;17.83;3.73;;;;;;;;;;5094174;28;20046;-67
2022/07/15 05:01:55;;;;;;;12.80;3.53;;;;;;;;;;5092413;28;20491;-67
2022/07/15 05:04:20;;;;;;;12.00;3.60;;;;;;;;;;5088888;28;20465;-67
2022/07/15 05:06:45;;;;;;;11.97;3.33;;;;;;;;;;5073436;28;20054;-67
2022/07/15 05:09:10;;;;;;;17.70;3.57;;;;;;;;;;5088289;28;20019;-67
2022/07/15 05:11:36;;;;;;;9.90;3.33;;;;;;;;;;5092198;28;20051;-67
2022/07/15 05:14:01;;;;;;;14.80;3.33;;;;;;;;;;5093819;28;20376;-67
2022/07/15 05:16:26;;;;;;;14.20;3.53;;;;;;;;;;5091794;28;20024;-67
2022/07/15 05:18:51;;;;;;;12.93;3.40;;;;;;;;;;5093722;28;20020;-67
2022/07/15 05:21:17;;;;;;;12.23;2.80;;;;;;;;;;5088966;28;20465;-67
2022/07/15 05:23:42;;;;;;;9.43;2.40;;;;;;;;;;5085447;28;20480;-67
2022/07/15 05:26:07;;;;;;;9.30;2.00;;;;;;;;;;5090411;28;20810;-67
2022/07/15 05:28:32;;;;;;;9.13;1.90;;;;;;;;;;5093678;28;20380;-67
2022/07/15 05:30:58;;;;;;;9.57;1.47;;;;;;;;;;5093290;28;20080;-67
2022/07/15 05:33:23;;;;;;;8.47;1.43;;;;;;;;;;5091540;28;20117;-67
2022/07/15 05:35:48;;;;;;;7.13;1.03;;;;;;;;;;5072524;28;20036;-67
2022/07/15 05:38:13;;;;;;;5.10;1.10;;;;;;;;;;5081037;28;20052;-67
2022/07/15 05:40:39;;;;;;;7.80;1.00;;;;;;;;;;5093424;28;20089;-67
2022/07/15 05:43:04;;;;;;;8.30;1.23;;;;;;;;;;5082488;28;20047;-67
2022/07/15 05:45:29;;;;;;;5.50;1.48;;;;;;;;;;5093200;28;20454;-67
2022/07/15 05:47:54;;;;;;;9.63;1.83;;;;;;;;;;5086404;28;20514;-68
2022/07/15 05:50:20;;;;;;;9.85;1.90;;;;;;;;;;5093021;28;20039;-68
2022/07/15 05:52:45;;;;;;;10.60;1.90;;;;;;;;;;5092826;28;20032;-68
2022/07/15 05:55:11;;;;;;;7.57;1.80;;;;;;;;;;5092888;28;20472;-67
2022/07/15 05:57:36;;;;;;;7.78;1.60;;;;;;;;;;5088871;28;20028;-67
2022/07/15 06:00:02;;;;;;;8.55;1.85;;;;;;;;;;5083316;28;20048;-67
2022/07/15 06:02:28;;;;;;;7.43;1.83;;;;;;;;;;5072932;28;20469;-68
2022/07/15 06:04:53;;;;;;;7.10;1.77;;;;;;;;;;5093048;28;20054;-67
2022/07/15 06:07:19;;;;;;;5.47;1.63;;;;;;;;;;5092750;28;20612;-68
2022/07/15 06:09:46;;;;;;;9.63;1.80;;;;;;;;;;5092961;28;20348;-67
2022/07/15 06:12:11;;;;;;;7.53;1.70;;;;;;;;;;5092989;28;20016;-68
2022/07/15 06:14:36;;;;;;;13.48;2.70;;;;;;;;;;5082191;28;20111;-67
2022/07/15 06:17:01;;;;;;;7.78;1.98;;;;;;;;;;5079761;28;20028;-67
2022/07/15 06:19:27;;;;;;;12.15;2.42;;;;;;;;;;5088149;28;20066;-67
2022/07/15 06:21:52;;;;;;;9.07;2.00;;;;;;;;;;5092380;28;20073;-68
2022/07/15 06:24:17;;;;;;;11.70;2.47;;;;;;;;;;5092297;28;20027;-67
2022/07/15 06:26:43;;;;;;;9.73;2.10;;;;;;;;;;5092410;28;20024;-67
2022/07/15 06:29:08;;;;;;;6.78;2.03;;;;;;;;;;5079943;28;20020;-68
2022/07/15 06:31:33;;;;;;;8.15;2.00;;;;;;;;;;5072337;28;20423;-68
2022/07/15 06:33:59;;;;;;;8.88;2.00;;;;;;;;;;5074330;28;20545;-68
2022/07/15 06:36:24;;;;;;;7.63;1.90;;;;;;;;;;5072048;28;20032;-68
2022/07/15 06:38:49;;;;;;;10.95;1.75;;;;;;;;;;5085196;28;20024;-68
2022/07/15 06:41:15;;;;;;;8.95;1.80;;;;;;;;;;5079316;28;20388;-68
2022/07/15 06:43:42;;;;;;;10.77;2.10;;;;;;;;;;5075761;28;20024;-67
2022/07/15 06:46:08;;;;;;;9.85;2.05;;;;;;;;;;5072091;28;20095;-68
2022/07/15 06:48:33;;;;;;;10.30;1.90;;;;;;;;;;5081868;28;20106;-67
2022/07/15 06:50:58;;;;;;;6.55;1.55;;;;;;;;;;5092180;28;20104;-68
2022/07/15 06:53:25;;;;;;;5.90;1.67;;;;;;;;;;5090843;28;20028;-68
2022/07/15 06:55:50;;;;;;;8.40;1.48;;;;;;;;;;5085359;28;20025;-69
2022/07/15 06:58:17;;;;;;;8.13;1.38;;;;;;;;;;5079764;28;20039;-68
2022/07/15 07:00:42;;;;;;;7.32;1.60;;;;;;;;;;5089129;28;20027;-68
2022/07/15 07:03:07;;;;;;;7.70;1.58;;;;;;;;;;5080663;28;20020;-68
2022/07/15 07:05:32;;;;;;;5.60;1.45;;;;;;;;;;5075030;28;20036;-68
2022/07/15 07:07:58;;;;;;;7.13;1.30;;;;;;;;;;5076507;28;20027;-67
2022/07/15 07:10:23;;;;;;;6.47;1.40;;;;;;;;;;5087639;28;20028;-69
2022/07/15 07:12:49;;;;;;;6.10;1.25;;;;;;;;;;5073789;28;20019;-68
2022/07/15 07:15:15;;;;;;;5.97;1.50;;;;;;;;;;5072067;28;20320;-67
2022/07/15 07:17:40;;;;;;;6.88;1.85;;;;;;;;;;5087357;28;20716;-67
2022/07/15 07:20:06;;;;;;;7.55;1.67;;;;;;;;;;5091714;28;20016;-67
2022/07/15 07:22:31;;;;;;;7.65;1.35;;;;;;;;;;5089154;28;20032;-68
2022/07/15 07:24:59;;;;;;;5.55;1.20;;;;;;;;;;5087150;28;20082;-68
2022/07/15 07:27:24;;;;;;;6.88;1.13;;;;;;;;;;5070986;28;20017;-69
2022/07/15 07:29:49;;;;;;;6.10;1.90;;;;;;;;;;5090882;28;20150;-68
2022/07/15 07:32:15;;;;;;;5.53;1.15;;;;;;;;;;5074693;28;20035;-67
2022/07/15 07:34:40;;;;;;;6.07;1.17;;;;;;;;;;5089374;28;20031;-67
2022/07/15 07:37:05;;;;;;;7.63;1.00;;;;;;;;;;5091266;28;20418;-68
2022/07/15 07:39:31;;;;;;;5.18;0.98;;;;;;;;;;5089050;28;20036;-69
2022/07/15 07:41:57;;;;;;;4.22;1.02;;;;;;;;;;5091307;28;20016;-68
2022/07/15 07:44:22;;;;;;;5.78;0.80;;;;;;;;;;5090968;28;20099;-68
2022/07/15 07:46:47;;;;;;;3.55;0.65;;;;;;;;;;5082393;28;20029;-69
2022/07/15 07:49:13;;;;;;;3.22;0.88;;;;;;;;;;5090751;28;20039;-68
2022/07/15 07:51:40;;;;;;;2.53;0.70;;;;;;;;;;5091283;28;20468;-68
2022/07/15 07:54:06;;;;;;;4.18;0.90;;;;;;;;;;5090601;28;20032;-69
2022/07/15 07:56:31;;;;;;;5.85;0.75;;;;;;;;;;5079075;28;20022;-68
2022/07/15 07:58:56;;;;;;;3.92;0.65;;;;;;;;;;5087558;28;20099;-68
2022/07/15 08:01:21;;;;;;;1.77;0.57;;;;;;;;;;5088103;28;20081;-69
2022/07/15 08:03:47;;;;;;;3.65;0.88;;;;;;;;;;5083728;28;20024;-69
2022/07/15 08:06:12;;;;;;;3.35;0.80;;;;;;;;;;5091253;28;20095;-68
2022/07/15 08:08:38;;;;;;;3.92;0.77;;;;;;;;;;5090773;28;20107;-68
2022/07/15 08:11:04;;;;;;;5.72;0.68;;;;;;;;;;5072256;28;20108;-68
2022/07/15 08:13:29;;;;;;;4.35;0.70;;;;;;;;;;5087120;28;20532;-68
2022/07/15 08:15:56;;;;;;;4.13;0.60;;;;;;;;;;5091169;28;20055;-68
2022/07/15 08:18:21;;;;;;;5.78;0.80;;;;;;;;;;5088891;28;20468;-68
2022/07/15 08:20:47;;;;;;;4.85;0.70;;;;;;;;;;5088694;28;20027;-68
2022/07/15 08:23:12;;;;;;;2.85;0.68;;;;;;;;;;5090779;28;20034;-68
2022/07/15 08:25:38;;;;;;;3.35;0.70;;;;;;;;;;5090840;28;20468;-68
2022/07/15 08:28:04;;;;;;;5.95;1.08;;;;;;;;;;5085597;28;20024;-68
2022/07/15 08:30:29;;;;;;;2.60;0.60;;;;;;;;;;5080705;28;20039;-68
2022/07/15 08:32:55;;;;;;;5.32;0.82;;;;;;;;;;5077391;28;20031;-68
2022/07/15 08:35:21;;;;;;;6.22;0.80;;;;;;;;;;5089099;28;20032;-68
2022/07/15 08:37:46;;;;;;;3.47;0.70;;;;;;;;;;5089276;28;20070;-68
2022/07/15 08:40:12;;;;;;;5.57;0.85;;;;;;;;;;5090909;28;20056;-68
2022/07/15 08:42:43;;;;;;;2.80;0.77;;;;;;;;;;5089257;28;20048;-68
2022/07/15 08:45:08;;;;;;;5.10;0.95;;;;;;;;;;5094265;28;20028;-67
2022/07/15 08:47:36;;;;;;;2.92;0.60;;;;;;;;;;5086287;28;20124;-68
2022/07/15 08:50:02;;;;;;;4.15;0.68;;;;;;;;;;5094121;28;20073;-68
2022/07/15 08:52:28;;;;;;;4.50;0.90;;;;;;;;;;5092035;28;20032;-68
2022/07/15 08:54:53;;;;;;;2.45;0.70;;;;;;;;;;5093944;28;20013;-68
2022/07/15 08:57:18;;;;;;;5.05;0.82;;;;;;;;;;5092404;28;20028;-68
2022/07/15 08:59:45;;;;;;;3.65;0.70;;;;;;;;;;5093787;28;20024;-68
2022/07/15 09:02:12;;;;;;;5.80;0.80;;;;;;;;;;5092554;28;20391;-69
2022/07/15 09:04:57;;;;;;;3.58;0.63;;;;;;;;;;5093583;28;20074;-68
2022/07/15 09:07:22;;;;;;;3.45;0.70;;;;;;;;;;5093636;28;20016;-69
2022/07/15 09:09:47;;;;;;;3.00;0.60;;;;;;;;;;5094193;28;20024;-69
2022/07/15 09:12:13;;;;;;;3.25;0.60;;;;;;;;;;5086496;28;20024;-68
2022/07/15 09:14:41;;;;;;;5.95;0.70;;;;;;;;;;5089917;28;20056;-67
2022/07/15 09:17:09;;;;;;;4.88;0.60;;;;;;;;;;5077512;28;20020;-67
2022/07/15 09:19:53;;;;;;;3.83;0.90;;;;;;;;;;5093656;28;20028;-67
2022/07/15 09:22:19;;;;;;;4.28;0.60;;;;;;;;;;5093718;28;20380;-67
2022/07/15 09:24:44;;;;;;;2.58;0.45;;;;;;;;;;5081999;28;20023;-68
2022/07/15 09:27:29;;;;;;;2.97;0.60;;;;;;;;;;5073437;28;20028;-69
2022/07/15 09:38:05;;;;;;;7.72;0.90;;;;;;;;;;5093129;28;20077;-68
2022/07/15 09:40:31;;;;;;;4.95;0.75;;;;;;;;;;5093381;28;20024;-68
2022/07/15 09:43:05;;;;;;;3.17;0.57;;;;;;;;;;5087797;28;20148;-68
2022/07/15 09:45:30;;;;;;;4.00;0.80;;;;;;;;;;5077474;28;20031;-67
2022/07/15 09:48:06;;;;;;;2.67;0.70;;;;;;;;;;5076518;28;20021;-68
2022/07/15 09:50:35;;;;;;;5.03;0.70;;;;;;;;;;5073005;28;20032;-67
2022/07/15 09:53:03;;;;;;;2.38;0.75;;;;;;;;;;5078093;28;20475;-68
2022/07/15 09:55:28;;;;;;;6.22;0.70;;;;;;;;;;5080998;28;20032;-68
2022/07/15 09:57:54;;;;;;;5.30;1.10;;;;;;;;;;5092994;28;20077;-67
2022/07/15 10:00:19;;;;;;;3.80;0.90;;;;;;;;;;5093295;28;20044;-67
2022/07/15 10:02:45;;;;;;;5.05;0.70;;;;;;;;;;5091054;28;20028;-67
2022/07/15 10:05:11;;;;;;;2.25;0.70;;;;;;;;;;5093143;28;20012;-68
2022/07/15 10:07:37;;;;;;;4.85;0.70;;;;;;;;;;5092445;28;20600;-67
2022/07/15 10:10:02;;;;;;;5.90;0.90;;;;;;;;;;5092714;28;20039;-66
2022/07/15 10:12:33;;;;;;;4.38;0.80;;;;;;;;;;5080829;28;20056;-67
2022/07/15 10:15:07;;;;;;;2.42;0.50;;;;;;;;;;5092712;28;20016;-68
2022/07/15 10:17:51;;;;;;;2.72;0.40;;;;;;;;;;5090759;28;20020;-68
2022/07/15 10:20:26;;;;;;;4.80;0.52;;;;;;;;;;5092833;28;20065;-68
2022/07/15 10:23:00;;;;;;;2.03;0.43;;;;;;;;;;5092260;28;20020;-67
2022/07/15 10:25:28;;;;;;;1.55;0.35;;;;;;;;;;5073486;28;20540;-67
2022/07/15 10:28:14;;;;;;;2.55;0.55;;;;;;;;;;5077521;28;20027;-67
2022/07/15 10:30:39;;;;;;;2.83;0.50;;;;;;;;;;5092477;28;20032;-67
2022/07/15 10:33:05;;;;;;;3.42;0.50;;;;;;;;;;5090566;28;20038;-68
2022/07/15 10:35:34;;;;;;;2.38;0.50;;;;;;;;;;5091065;28;20464;-69
2022/07/15 10:38:18;;;;;;;2.05;0.57;;;;;;;;;;5091994;28;20012;-69
2022/07/15 10:41:02;;;;;;;2.83;0.55;;;;;;;;;;5092140;28;20012;-69
2022/07/15 10:43:39;;;;;;;5.32;0.90;;;;;;;;;;5081582;28;20031;-68
2022/07/15 10:46:04;;;;;;;4.45;0.50;;;;;;;;;;5082679;28;20031;-69
2022/07/15 10:48:30;;;;;;;1.88;0.57;;;;;;;;;;5090614;28;20264;-68
2022/07/15 10:50:56;;;;;;;2.70;0.60;;;;;;;;;;5090316;28;20089;-68
2022/07/15 10:53:23;;;;;;;4.38;0.75;;;;;;;;;;5076298;28;20032;-68
2022/07/15 10:55:49;;;;;;;3.42;1.00;;;;;;;;;;5077950;28;20031;-68
2022/07/15 10:58:16;;;;;;;2.38;0.60;;;;;;;;;;5091797;28;20028;-68
2022/07/15 11:00:43;;;;;;;7.00;1.00;;;;;;;;;;5089902;28;20020;-68
2022/07/15 11:03:17;;;;;;;4.47;0.90;;;;;;;;;;5091374;28;20024;-68
2022/07/15 11:05:45;;;;;;;6.15;1.20;;;;;;;;;;5080039;28;20097;-68
2022/07/15 11:08:29;;;;;;;4.40;0.98;;;;;;;;;;5077703;28;20032;-67
2022/07/15 11:10:54;;;;;;;6.55;1.13;;;;;;;;;;5071769;28;20422;-67
2022/07/15 11:13:31;;;;;;;5.80;0.95;;;;;;;;;;5079991;28;20015;-67
2022/07/15 11:16:00;;;;;;;5.07;0.90;;;;;;;;;;5089448;28;20101;-67
2022/07/15 11:18:25;;;;;;;2.78;0.70;;;;;;;;;;5088993;28;20028;-67
2022/07/15 11:20:50;;;;;;;5.10;0.90;;;;;;;;;;5071697;28;20020;-67
2022/07/15 11:23:17;;;;;;;5.03;0.90;;;;;;;;;;5079754;28;20092;-67
2022/07/15 11:25:43;;;;;;;2.45;0.75;;;;;;;;;;5083639;28;20028;-68
2022/07/15 11:28:10;;;;;;;4.97;1.00;;;;;;;;;;5073215;28;20583;-67
2022/07/15 11:30:35;;;;;;;3.20;0.80;;;;;;;;;;5089129;28;20504;-67
2022/07/15 11:33:01;;;;;;;4.95;1.00;;;;;;;;;;5091239;28;20024;-67
2022/07/15 11:35:28;;;;;;;3.88;0.98;;;;;;;;;;5091635;28;20031;-67
2022/07/15 11:38:00;;;;;;;5.55;0.98;;;;;;;;;;5089315;28;20033;-67
2022/07/15 11:45:58;;;;;;;5.20;1.27;;;;;;;;;;5075496;28;20055;-67
2022/07/15 11:48:23;;;;;;;6.35;1.05;;;;;;;;;;5080164;28;20387;-68
2022/07/15 11:50:53;;;;;;;3.15;0.90;;;;;;;;;;5091487;28;20119;-67
2022/07/15 11:53:19;;;;;;;3.88;0.95;;;;;;;;;;5091197;28;20028;-67
2022/07/15 11:55:48;;;;;;;3.28;0.82;;;;;;;;;;5083877;28;20028;-67
2022/07/15 11:58:13;;;;;;;3.15;0.73;;;;;;;;;;5079146;28;20024;-67
2022/07/15 12:00:38;;;;;;;5.03;1.33;;;;;;;;;;5088991;28;20518;-67
2022/07/15 12:03:07;;;;;;;5.43;0.90;;;;;;;;;;5085381;28;20388;-67
2022/07/15 12:05:33;;;;;;;4.32;0.70;;;;;;;;;;5091398;28;20028;-68
2022/07/15 12:07:58;;;;;;;3.08;0.80;;;;;;;;;;5091115;28;20040;-67
2022/07/15 12:10:32;;;;;;;2.33;0.60;;;;;;;;;;5091436;28;20538;-68
2022/07/15 12:12:58;;;;;;;5.03;0.88;;;;;;;;;;5086064;28;20642;-67
2022/07/15 12:15:23;;;;;;;5.85;0.70;;;;;;;;;;5089328;28;20055;-67
2022/07/15 12:17:49;;;;;;;3.25;0.77;;;;;;;;;;5093877;28;20016;-67
2022/07/15 12:20:14;;;;;;;2.53;0.60;;;;;;;;;;5094936;28;20027;-67
2022/07/15 12:22:58;;;;;;;4.22;0.82;;;;;;;;;;5093269;28;20423;-67
2022/07/15 12:25:23;;;;;;;3.85;0.63;;;;;;;;;;5095281;28;20500;-67
2022/07/15 12:27:49;;;;;;;2.60;0.70;;;;;;;;;;5094854;28;20039;-68
2022/07/15 12:30:14;;;;;;;4.38;0.68;;;;;;;;;;5093181;28;20024;-68
2022/07/15 12:32:39;;;;;;;3.63;0.60;;;;;;;;;;5094537;28;20028;-67
2022/07/15 12:35:05;;;;;;;4.28;1.15;;;;;;;;;;5094780;28;20082;-67
2022/07/15 12:37:30;;;;;;;3.25;0.60;;;;;;;;;;5094275;28;20016;-67
2022/07/15 12:39:56;;;;;;;2.70;0.60;;;;;;;;;;5076774;28;20019;-67
2022/07/15 12:42:22;;;;;;;2.53;0.63;;;;;;;;;;5074993;28;20028;-68
2022/07/15 12:45:04;;;;;;;3.35;0.80;;;;;;;;;;5092040;28;20020;-68
2022/07/15 12:47:29;;;;;;;2.63;0.60;;;;;;;;;;5075932;28;20166;-68
2022/07/15 12:49:55;;;;;;;3.85;0.68;;;;;;;;;;5094397;28;20110;-68
2022/07/15 12:52:24;;;;;;;3.83;0.68;;;;;;;;;;5094379;28;20028;-68
2022/07/15 12:54:51;;;;;;;2.60;0.50;;;;;;;;;;5092312;28;20031;-68
2022/07/15 12:57:24;;;;;;;1.95;0.50;;;;;;;;;;5088346;28;20012;-68
2022/07/15 12:59:51;;;;;;;3.17;0.50;;;;;;;;;;5094100;28;20020;-68
2022/07/15 13:02:17;;;;;;;3.72;0.70;;;;;;;;;;5091946;28;20100;-67
2022/07/15 13:04:42;;;;;;;6.03;0.82;;;;;;;;;;5094409;28;20096;-67
2022/07/15 13:07:07;;;;;;;4.03;0.70;;;;;;;;;;5084876;28;20024;-68
2022/07/15 13:09:32;;;;;;;3.38;0.80;;;;;;;;;;5093339;28;20024;-68
2022/07/15 13:11:59;;;;;;;1.58;0.55;;;;;;;;;;5094264;28;20440;-68
2022/07/15 13:14:25;;;;;;;3.15;0.70;;;;;;;;;;5093678;28;20016;-68
2022/07/15 13:16:50;;;;;;;3.05;1.00;;;;;;;;;;5091121;28;20058;-67
2022/07/15 13:19:15;;;;;;;3.17;0.60;;;;;;;;;;5085391;28;20016;-67
2022/07/15 13:21:40;;;;;;;3.00;0.80;;;;;;;;;;5075705;28;20025;-68
2022/07/15 13:24:06;;;;;;;1.63;0.60;;;;;;;;;;5088351;28;20046;-67
2022/07/15 13:26:31;;;;;;;2.85;0.52;;;;;;;;;;5077329;28;20021;-68
2022/07/15 13:28:56;;;;;;;3.53;0.60;;;;;;;;;;5086537;28;20035;-67
2022/07/15 13:31:21;;;;;;;2.53;0.60;;;;;;;;;;5089478;28;20016;-68
2022/07/15 13:33:46;;;;;;;3.50;0.80;;;;;;;;;;5085914;28;20020;-68
2022/07/15 13:36:12;;;;;;;2.45;0.65;;;;;;;;;;5093778;28;20129;-68
2022/07/15 13:38:37;;;;;;;1.42;0.60;;;;;;;;;;5093800;28;20016;-67
2022/07/15 13:41:02;;;;;;;3.45;0.80;;;;;;;;;;5093627;28;20028;-67
2022/07/15 13:43:27;;;;;;;4.68;1.50;;;;;;;;;;5087621;28;20097;-68
2022/07/15 13:45:52;;;;;;;1.38;0.60;;;;;;;;;;5091099;28;20085;-67
2022/07/15 13:48:18;;;;;;;1.92;0.60;;;;;;;;;;5080154;28;20024;-67
2022/07/15 13:53:27;;;;;;;2.33;0.60;;;;;;;;;;5092779;28;20035;-67
2022/07/15 13:55:52;;;;;;;2.22;0.60;;;;;;;;;;5084711;28;20032;-67
2022/07/15 13:58:17;;;;;;;2.88;0.82;;;;;;;;;;5092711;28;20494;-68
2022/07/15 14:00:43;;;;;;;3.45;0.70;;;;;;;;;;5093031;28;20536;-67
2022/07/15 14:03:09;;;;;;;2.70;0.60;;;;;;;;;;5091028;28;20494;-67
2022/07/15 14:05:34;;;;;;;3.30;0.90;;;;;;;;;;5093390;28;20027;-68
2022/07/15 14:08:00;;;;;;;2.17;0.60;;;;;;;;;;5090525;28;20027;-67
2022/07/15 14:10:25;;;;;;;2.25;0.70;;;;;;;;;;5091939;28;20031;-67
2022/07/15 14:12:51;;;;;;;2.92;0.50;;;;;;;;;;5092423;28;20548;-67
2022/07/15 14:15:16;;;;;;;1.88;0.70;;;;;;;;;;5092988;28;20020;-67
2022/07/15 14:17:42;;;;;;;1.83;0.70;;;;;;;;;;5090624;28;20020;-67
2022/07/15 14:20:08;;;;;;;3.38;0.60;;;;;;;;;;5092847;28;20460;-67
2022/07/15 14:22:33;;;;;;;1.33;0.63;;;;;;;;;;5092636;28;20020;-67
2022/07/15 14:24:59;;;;;;;2.70;0.90;;;;;;;;;;5092440;28;20024;-67
2022/07/15 14:27:25;;;;;;;3.95;0.80;;;;;;;;;;5092205;28;20232;-68
2022/07/15 14:29:50;;;;;;;2.05;0.52;;;;;;;;;;5090346;28;20030;-68
2022/07/15 14:32:16;;;;;;;2.25;0.57;;;;;;;;;;5087789;28;20055;-68
2022/07/15 14:34:41;;;;;;;2.30;0.60;;;;;;;;;;5092318;28;20058;-68
2022/07/15 14:37:06;;;;;;;4.60;0.75;;;;;;;;;;5092592;28;20028;-67
2022/07/15 14:39:31;;;;;;;4.25;0.60;;;;;;;;;;5091598;28;20028;-68
2022/07/15 14:41:57;;;;;;;2.20;0.70;;;;;;;;;;5090649;28;20047;-68
2022/07/15 14:44:22;;;;;;;3.38;0.60;;;;;;;;;;5091908;28;20388;-67
2022/07/15 14:46:47;;;;;;;2.75;0.55;;;;;;;;;;5090032;28;20110;-67
2022/07/15 14:49:12;;;;;;;2.45;0.70;;;;;;;;;;5091550;28;20087;-68
2022/07/15 14:51:38;;;;;;;2.28;0.70;;;;;;;;;;5092163;28;20032;-68
2022/07/15 14:54:03;;;;;;;4.22;1.10;;;;;;;;;;5089860;28;20050;-68
2022/07/15 14:56:28;;;;;;;3.22;0.70;;;;;;;;;;5091535;28;20481;-68